ADDS METAR Data INFO
IDs: Format: Raw Decoded Include TAF

Data at: 0751 UTC 24 May 2018

KODO 240653Z AUTO 08005KT 10SM CLR 21/15 A3004 RMK AO2 SLP126 T02110150
KODO 240553Z AUTO 00000KT 10SM CLR 23/14 A3006 RMK AO2 SLP132 T02330144 10289 20233 403220200 58007
KODO 240453Z AUTO 24004KT 10SM CLR 24/13 A3010 RMK AO2 SLP147 T02390133
KODO 240353Z AUTO 11008KT 10SM CLR 23/13 A3006 RMK AO2 PRESFR SLP135 T02330128
KODO 240153Z AUTO 18011KT 10SM CLR 28/14 A3005 RMK AO2 LTG DSNT N AND NW SLP131 T02780144
KODO 240053Z AUTO 18014KT 10SM SCT060 28/13 A3003 RMK AO2 LTG DSNT SW SLP124 T02830133
KODO 232353Z AUTO 17012G21KT 10SM CLR 29/13 A3001 RMK AO2 SLP116 T02890133 10322 20283 53005
KODO 232253Z AUTO 18019G23KT 10SM CLR 30/13 A2999 RMK AO2 SLP107 T03000133
KODO 232153Z AUTO 16017G23KT 10SM CLR 31/13 A2997 RMK AO2 PK WND 13026/2054 SLP099 T03110133
KODO 232053Z AUTO 15017G25KT 120V180 10SM CLR 32/13 A2999 RMK AO2 PK WND 17030/2041 SLP106 T03170133 58020
KODO 231953Z AUTO 14012G23KT 10SM CLR 31/14 A3001 RMK AO2 SLP114 T03110139
KODO 231853Z AUTO 17017G21KT 10SM CLR 30/15 A3005 RMK AO2 SLP125 T03000150
KODO 231753Z AUTO 14017G23KT 10SM BKN042 28/16 A3006 RMK AO2 SLP129 T02830161 10283 20206 58005
KODO 231653Z AUTO 15016KT 10SM OVC036 27/17 A3007 RMK AO2 SLP135 T02670172
KODO 231553Z AUTO 15017KT 10SM OVC030 24/17 A3007 RMK AO2 SLP138 T02440172
KODO 231506Z AUTO 18017KT 10SM BKN026 OVC030 23/17 A3007 RMK AO2 T02330172
KODO 231453Z AUTO 16019G22KT 10SM 23/17 A3007 RMK AO2 SLP137 T02330172 51020
KODO 231353Z AUTO 16012KT 10SM 22/18 A3006 RMK AO2 SLP135 T02170178
KODO 231253Z AUTO 16016KT 10SM 21/18 A3003 RMK AO2 SLP124 T02110178
KODO 231153Z AUTO 15013KT 10SM 21/17 A3001 RMK AO2 SLP115 T02060172 10244 20200 53011
KODO 231053Z AUTO 15012KT 10SM 21/17 A2999 RMK AO2 SLP107 T02110172
KODO 230953Z AUTO 15014KT 10SM 22/17 A2998 RMK AO2 SLP103 T02170167
KODO 230853Z AUTO 15013KT 10SM 22/17 A2997 RMK AO2 SLP102 T02220167 51002
KODO 230753Z AUTO 15016KT 10SM 23/17 A2997 RMK AO2 SLP101 T02280167
KODO 230653Z AUTO 15015KT 10SM 23/17 A2997 RMK AO2 PK WND 15028/0618 SLP102 T02330167
KODO 230553Z AUTO 16017G25KT 10SM 24/17 A2997 RMK AO2 SLP101 T02440167 10294 20244 403110194 58001
KODO 230453Z AUTO 16017G21KT 10SM 25/16 A2998 RMK AO2 SLP106 T02500161
KODO 230353Z AUTO 15014KT 10SM 26/14 A2999 RMK AO2 SLP110 T02560144
KODO 230253Z AUTO 16013KT 10SM 27/13 A2997 RMK AO2 SLP103 T02670133 53017
KODO 230153Z AUTO 17012G20KT 10SM 27/14 A2994 RMK AO2 SLP096 T02720139
KODO 230053Z AUTO 17016KT 10SM 28/13 A2992 RMK AO2 SLP084 T02830133
KODO 222353Z AUTO 15014G21KT 10SM 29/13 A2992 RMK AO2 SLP085 T02940128 10311 20261 56013
KODO 222253Z AUTO 18014KT 10SM 31/13 A2992 RMK AO2 SLP085 T03060133
KODO 222153Z AUTO 17015G20KT 10SM 30/13 A2993 RMK AO2 SLP088 T03000133
KODO 222053Z AUTO 18013KT 10SM 29/14 A2996 RMK AO2 SLP098 T02890139 58020 $
KODO 221953Z AUTO 18013G20KT 10SM 29/14 A2998 RMK AO2 SLP104 T02890144 $